createdAt,value
2019-04-07T00:01:15.854Z,99.90
2019-04-07T00:03:45.466Z,99.90
2019-04-07T00:06:14.743Z,99.90
2019-04-07T00:08:44.473Z,99.90
2019-04-07T00:11:14.270Z,99.90
2019-04-07T00:13:43.394Z,99.90
2019-04-07T00:16:12.634Z,99.90
2019-04-07T00:18:41.922Z,99.90
2019-04-07T00:21:11.300Z,99.90
2019-04-07T00:23:41.741Z,99.90
2019-04-07T00:26:11.433Z,99.90
2019-04-07T00:28:40.838Z,99.90
2019-04-07T00:31:10.529Z,99.90
2019-04-07T00:33:40.093Z,99.90
2019-04-07T00:36:09.582Z,99.90
2019-04-07T00:38:39.389Z,99.90
2019-04-07T00:41:08.809Z,99.90
2019-04-07T00:43:39.505Z,99.90
2019-04-07T00:46:08.850Z,99.90
2019-04-07T00:48:38.583Z,99.90
2019-04-07T00:51:07.848Z,99.90
2019-04-07T00:53:37.525Z,99.90
2019-04-07T00:56:06.695Z,99.90
2019-04-07T00:58:36.879Z,99.90
2019-04-07T01:01:07.520Z,99.90
2019-04-07T01:03:36.770Z,99.90
2019-04-07T01:06:06.637Z,99.90
2019-04-07T01:08:36.097Z,99.90
2019-04-07T01:11:06.305Z,99.90
2019-04-07T01:13:36.269Z,99.90
2019-04-07T01:16:25.169Z,99.90
2019-04-07T01:18:54.377Z,99.90
2019-04-07T01:21:23.752Z,99.90
2019-04-07T01:23:53.291Z,99.90
2019-04-07T01:26:22.763Z,99.90
2019-04-07T01:28:54.304Z,99.90
2019-04-07T01:31:23.310Z,99.90
2019-04-07T01:33:52.377Z,99.90
2019-04-07T01:36:21.805Z,99.90
2019-04-07T01:38:51.168Z,99.90
2019-04-07T01:41:38.275Z,99.90
2019-04-07T01:44:15.998Z,99.90
2019-04-07T01:46:58.164Z,99.90
2019-04-07T01:49:45.419Z,99.90
2019-04-07T01:52:21.094Z,99.90
2019-04-07T01:54:56.895Z,99.90
2019-04-07T01:57:46.556Z,99.90
2019-04-07T02:00:44.445Z,99.90
2019-04-07T02:03:35.781Z,99.90
2019-04-07T02:06:22.923Z,99.90
2019-04-07T02:09:00.830Z,99.90
2019-04-07T02:11:49.436Z,99.90
2019-04-07T02:14:50.011Z,99.90
2019-04-07T02:17:25.225Z,99.90
2019-04-07T02:20:04.557Z,99.90
2019-04-07T02:22:46.551Z,99.90
2019-04-07T02:25:46.928Z,99.90
2019-04-07T02:28:39.130Z,99.90
2019-04-07T02:31:33.631Z,99.90
2019-04-07T02:34:25.748Z,99.90
2019-04-07T02:37:17.481Z,99.90
2019-04-07T02:40:17.919Z,99.90
2019-04-07T02:42:52.612Z,99.90
2019-04-07T02:45:56.641Z,99.90
2019-04-07T02:48:52.297Z,99.90
2019-04-07T02:51:38.267Z,99.90
2019-04-07T02:54:20.642Z,99.90
2019-04-07T02:57:02.445Z,99.90
2019-04-07T02:59:44.368Z,99.90
2019-04-07T03:02:33.490Z,99.90
2019-04-07T03:05:29.555Z,99.90
2019-04-07T03:08:13.835Z,99.90
2019-04-07T03:11:00.608Z,99.90
2019-04-07T03:13:48.912Z,99.90
2019-04-07T03:16:36.050Z,99.90
2019-04-07T03:19:29.967Z,99.90
2019-04-07T03:22:26.591Z,99.90
2019-04-07T03:25:09.917Z,99.90
2019-04-07T03:27:51.558Z,99.90
2019-04-07T03:30:47.953Z,99.90
2019-04-07T03:33:26.177Z,99.90
2019-04-07T03:36:04.029Z,99.90
2019-04-07T03:38:46.244Z,99.90
2019-04-07T03:41:39.924Z,99.90
2019-04-07T03:44:37.762Z,99.90
2019-04-07T03:47:14.240Z,99.90
2019-04-07T03:50:07.061Z,99.90
2019-04-07T03:52:48.949Z,99.90
2019-04-07T03:55:28.241Z,99.90
2019-04-07T03:58:10.752Z,99.90
2019-04-07T04:01:33.309Z,99.90
2019-04-07T04:04:28.621Z,99.90
2019-04-07T04:07:29.375Z,99.90
2019-04-07T04:10:12.645Z,99.90
2019-04-07T04:13:05.163Z,99.90
2019-04-07T04:16:02.990Z,99.90
2019-04-07T04:18:32.187Z,99.90
2019-04-07T04:21:01.527Z,99.90
2019-04-07T04:23:31.643Z,99.90
2019-04-07T04:26:00.945Z,99.90
2019-04-07T04:28:30.672Z,99.90
2019-04-07T04:30:59.950Z,99.90
2019-04-07T04:33:29.622Z,99.90
2019-04-07T04:35:59.095Z,99.90
2019-04-07T04:38:29.765Z,99.90
2019-04-07T04:40:58.995Z,99.90
2019-04-07T04:43:28.236Z,99.90
2019-04-07T04:45:57.487Z,99.90
2019-04-07T04:48:26.573Z,99.90
2019-04-07T04:50:56.092Z,99.90
2019-04-07T04:53:25.666Z,99.90
2019-04-07T04:55:55.694Z,99.90
2019-04-07T04:58:24.866Z,99.90
2019-04-07T05:00:54.006Z,99.90
2019-04-07T05:03:23.250Z,99.90
2019-04-07T05:05:52.451Z,99.90
2019-04-07T05:08:21.758Z,99.90
2019-04-07T05:10:51.039Z,99.90
2019-04-07T05:13:20.158Z,99.90
2019-04-07T05:15:50.201Z,99.90
2019-04-07T05:18:20.028Z,99.90
2019-04-07T05:20:49.080Z,99.90
2019-04-07T05:23:18.156Z,99.90
2019-04-07T05:25:48.099Z,99.90
2019-04-07T05:28:17.342Z,99.90
2019-04-07T05:30:46.906Z,99.90
2019-04-07T05:33:16.568Z,99.90
2019-04-07T05:35:45.698Z,99.90
2019-04-07T05:38:15.021Z,99.90
2019-04-07T05:40:47.484Z,99.90
2019-04-07T05:43:17.342Z,99.90
2019-04-07T05:45:46.849Z,99.90
2019-04-07T05:48:19.300Z,99.90
2019-04-07T05:50:47.301Z,99.70
2019-04-07T05:53:16.954Z,99.40
2019-04-07T05:55:46.850Z,99.10
2019-04-07T05:58:16.999Z,98.90
2019-04-07T06:00:48.003Z,98.80
2019-04-07T06:03:17.798Z,98.20
2019-04-07T06:05:48.261Z,96.70
2019-04-07T06:08:27.647Z,95.90
2019-04-07T06:10:51.069Z,95.40
2019-04-07T06:13:20.557Z,95.00
2019-04-07T06:15:51.918Z,94.60
2019-04-07T06:18:20.356Z,93.80
2019-04-07T06:20:50.368Z,93.50
2019-04-07T06:23:22.085Z,93.50
2019-04-07T06:25:51.087Z,93.20
2019-04-07T06:28:20.710Z,93.20
2019-04-07T06:30:50.816Z,93.40
2019-04-07T06:33:19.988Z,93.60
2019-04-07T06:35:53.914Z,93.50
2019-04-07T06:38:31.802Z,93.50
2019-04-07T06:40:57.094Z,92.80
2019-04-07T06:43:23.881Z,92.30
2019-04-07T06:46:04.854Z,92.20
2019-04-07T06:48:39.044Z,91.70
2019-04-07T06:51:31.097Z,91.30
2019-04-07T06:54:25.435Z,91.10
2019-04-07T06:57:12.335Z,90.70
2019-04-07T07:00:17.434Z,90.40
2019-04-07T07:03:02.343Z,90.40
2019-04-07T07:05:51.506Z,90.80
2019-04-07T07:08:28.399Z,91.30
2019-04-07T07:11:31.633Z,90.80
2019-04-07T07:14:30.063Z,90.90
2019-04-07T07:16:57.118Z,90.90
2019-04-07T07:19:42.316Z,91.30
2019-04-07T07:22:20.265Z,91.10
2019-04-07T07:24:50.308Z,91.00
2019-04-07T07:27:21.779Z,91.00
2019-04-07T07:30:00.148Z,91.20
2019-04-07T07:32:35.546Z,91.40
2019-04-07T07:35:04.207Z,91.00
2019-04-07T07:37:34.089Z,90.50
2019-04-07T07:40:06.596Z,90.00
2019-04-07T07:42:35.505Z,89.60
2019-04-07T07:45:08.239Z,89.70
2019-04-07T07:47:37.303Z,87.20
2019-04-07T07:50:07.893Z,87.20
2019-04-07T07:52:39.922Z,86.70
2019-04-07T07:55:11.983Z,87.30
2019-04-07T07:57:44.549Z,85.80
2019-04-07T08:00:15.639Z,85.50
2019-04-07T08:02:51.677Z,86.20
2019-04-07T08:05:20.446Z,88.20
2019-04-07T08:07:55.123Z,88.40
2019-04-07T08:10:26.926Z,87.70
2019-04-07T08:12:57.446Z,84.60
2019-04-07T08:15:32.298Z,82.60
2019-04-07T08:18:20.742Z,81.50
2019-04-07T08:20:50.079Z,79.00
2019-04-07T08:23:21.082Z,74.00
2019-04-07T08:25:53.486Z,68.20
2019-04-07T08:28:21.636Z,62.30
2019-04-07T08:30:51.644Z,58.40
2019-04-07T08:33:21.098Z,56.90
2019-04-07T08:35:52.093Z,56.60
2019-04-07T08:38:25.571Z,57.40
2019-04-07T08:40:54.269Z,59.00
2019-04-07T08:43:28.140Z,61.70
2019-04-07T08:45:57.945Z,64.90
2019-04-07T08:48:27.929Z,67.40
2019-04-07T08:50:59.837Z,71.80
2019-04-07T08:53:28.351Z,73.50
2019-04-07T08:55:57.530Z,75.10
2019-04-07T08:58:28.995Z,75.90
2019-04-07T09:00:58.551Z,76.50
2019-04-07T09:03:28.126Z,77.90
2019-04-07T09:05:57.764Z,79.00
2019-04-07T09:08:27.393Z,78.20
2019-04-07T09:11:04.579Z,78.40
2019-04-07T09:13:34.457Z,78.20
2019-04-07T09:16:23.549Z,77.10
2019-04-07T09:19:15.079Z,77.40
2019-04-07T09:21:53.619Z,76.20
2019-04-07T09:24:41.632Z,76.60
2019-04-07T09:27:23.113Z,76.90
2019-04-07T09:29:58.170Z,76.50
2019-04-07T09:32:56.831Z,76.70
2019-04-07T09:35:39.365Z,76.10
2019-04-07T09:38:27.389Z,76.20
2019-04-07T09:41:17.236Z,75.10
2019-04-07T09:44:05.580Z,75.00
2019-04-07T09:47:04.294Z,76.10
2019-04-07T09:49:56.315Z,76.50
2019-04-07T09:52:37.755Z,75.40
2019-04-07T09:55:35.522Z,75.10
2019-04-07T09:58:43.644Z,75.30
2019-04-07T10:01:35.252Z,76.10
2019-04-07T10:04:42.235Z,75.30
2019-04-07T10:07:42.326Z,74.80
2019-04-07T10:10:21.538Z,75.10
2019-04-07T10:13:24.731Z,74.80
2019-04-07T10:16:07.663Z,72.30
2019-04-07T10:18:54.552Z,71.80
2019-04-07T10:21:42.915Z,71.80
2019-04-07T10:24:21.225Z,70.40
2019-04-07T10:27:04.735Z,70.40
2019-04-07T10:29:43.940Z,68.60
2019-04-07T10:32:30.884Z,68.30
2019-04-07T10:35:25.441Z,66.70
2019-04-07T10:38:20.038Z,64.70
2019-04-07T10:41:05.647Z,63.50
2019-04-07T10:43:48.751Z,61.80
2019-04-07T10:46:30.335Z,58.40
2019-04-07T10:49:19.416Z,59.00
2019-04-07T10:52:03.400Z,59.00
2019-04-07T10:54:57.319Z,57.60
2019-04-07T10:57:39.931Z,57.60
2019-04-07T11:00:27.778Z,58.40
2019-04-07T11:03:14.651Z,58.50
2019-04-07T11:05:57.070Z,57.90
2019-04-07T11:08:35.643Z,57.30
2019-04-07T11:11:33.398Z,57.40
2019-04-07T11:14:30.961Z,56.90
2019-04-07T11:17:19.394Z,56.70
2019-04-07T11:20:08.145Z,55.90
2019-04-07T11:22:54.986Z,55.70
2019-04-07T11:25:42.795Z,55.50
2019-04-07T11:28:22.553Z,54.30
2019-04-07T11:31:01.359Z,53.40
2019-04-07T11:33:48.889Z,53.80
2019-04-07T11:36:29.840Z,53.50
2019-04-07T11:39:11.943Z,52.80
2019-04-07T11:41:59.342Z,52.30
2019-04-07T11:45:08.207Z,51.90
2019-04-07T11:47:45.903Z,51.60
2019-04-07T11:50:32.783Z,52.10
2019-04-07T11:53:25.837Z,51.60
2019-04-07T11:56:11.516Z,52.00
2019-04-07T11:58:59.098Z,50.90
2019-04-07T12:01:43.666Z,49.00
2019-04-07T12:04:45.359Z,49.20
2019-04-07T12:07:26.960Z,49.60
2019-04-07T12:10:05.639Z,49.90
2019-04-07T12:12:59.208Z,50.30
2019-04-07T12:15:46.312Z,50.50
2019-04-07T12:18:34.160Z,49.70
2019-04-07T12:21:24.006Z,49.60
2019-04-07T12:24:10.592Z,49.30
2019-04-07T12:27:08.932Z,49.10
2019-04-07T12:29:56.860Z,49.10
2019-04-07T12:32:35.901Z,49.60
2019-04-07T12:35:33.044Z,50.40
2019-04-07T12:38:13.941Z,50.60
2019-04-07T12:41:11.486Z,50.60
2019-04-07T12:43:36.302Z,49.90
2019-04-07T12:46:17.728Z,49.70
2019-04-07T12:49:06.787Z,49.70
2019-04-07T12:51:43.008Z,49.60
2019-04-07T12:54:30.414Z,49.40
2019-04-07T12:57:22.023Z,49.10
2019-04-07T13:00:02.537Z,48.60
2019-04-07T13:03:09.158Z,47.60
2019-04-07T13:05:48.699Z,47.10
2019-04-07T13:08:36.607Z,47.10
2019-04-07T13:11:33.935Z,46.10
2019-04-07T13:14:24.598Z,46.30
2019-04-07T13:17:16.063Z,47.20
2019-04-07T13:19:57.548Z,47.60
2019-04-07T13:22:36.611Z,48.00
2019-04-07T13:25:20.137Z,47.50
2019-04-07T13:28:08.140Z,47.60
2019-04-07T13:30:56.572Z,48.50
2019-04-07T13:33:38.089Z,48.20
2019-04-07T13:36:18.012Z,47.70
2019-04-07T13:39:08.742Z,47.60
2019-04-07T13:42:05.593Z,47.70
2019-04-07T13:45:02.544Z,46.70
2019-04-07T13:47:48.539Z,46.30
2019-04-07T13:50:37.130Z,45.70
2019-04-07T13:53:27.872Z,46.20
2019-04-07T13:56:34.315Z,45.80
2019-04-07T13:59:21.485Z,46.10
2019-04-07T14:02:08.500Z,45.70
2019-04-07T14:04:42.389Z,45.40
2019-04-07T14:07:25.235Z,45.50
2019-04-07T14:10:12.508Z,45.20
2019-04-07T14:12:56.648Z,45.80
2019-04-07T14:15:38.128Z,46.10
2019-04-07T14:18:25.579Z,45.90
2019-04-07T14:21:11.573Z,46.00
2019-04-07T14:24:09.234Z,46.00
2019-04-07T14:26:46.741Z,46.50
2019-04-07T14:29:40.610Z,46.50
2019-04-07T14:32:28.423Z,46.00
2019-04-07T14:35:26.913Z,45.90
2019-04-07T14:38:11.148Z,45.80
2019-04-07T14:40:59.950Z,45.80
2019-04-07T14:43:47.518Z,45.60
2019-04-07T14:46:54.095Z,45.40
2019-04-07T14:49:51.557Z,45.40
2019-04-07T14:52:34.265Z,45.90
2019-04-07T14:55:37.902Z,46.40
2019-04-07T14:58:32.469Z,46.70
2019-04-07T15:01:23.675Z,47.60
2019-04-07T15:03:53.124Z,48.20
2019-04-07T15:06:22.888Z,48.70
2019-04-07T15:09:06.756Z,48.40
2019-04-07T15:11:59.848Z,47.90
2019-04-07T15:14:31.382Z,47.70
2019-04-07T15:17:00.624Z,47.80
2019-04-07T15:19:31.028Z,48.10
2019-04-07T15:22:02.319Z,48.10
2019-04-07T15:24:35.407Z,47.90
2019-04-07T15:27:05.950Z,48.00
2019-04-07T15:29:38.636Z,48.20
2019-04-07T15:32:07.224Z,47.50
2019-04-07T15:34:39.559Z,47.60
2019-04-07T15:37:07.871Z,47.90
2019-04-07T15:39:38.044Z,48.50
2019-04-07T15:42:09.446Z,48.50
2019-04-07T15:44:39.686Z,47.80
2019-04-07T15:47:09.893Z,47.60
2019-04-07T15:49:40.857Z,47.50
2019-04-07T15:52:10.193Z,47.00
2019-04-07T15:54:40.426Z,46.70
2019-04-07T15:57:10.052Z,47.30
2019-04-07T15:59:39.690Z,46.90
2019-04-07T16:02:11.235Z,46.90
2019-04-07T16:04:40.803Z,46.90
2019-04-07T16:07:10.323Z,47.00
2019-04-07T16:09:51.014Z,47.20
2019-04-07T16:12:11.351Z,47.40
2019-04-07T16:14:44.923Z,47.40
2019-04-07T16:17:12.117Z,47.40
2019-04-07T16:19:44.426Z,47.60
2019-04-07T16:22:14.144Z,47.50
2019-04-07T16:24:43.331Z,47.20
2019-04-07T16:27:12.377Z,47.20
2019-04-07T16:29:41.433Z,47.10
2019-04-07T16:32:11.322Z,47.30
2019-04-07T16:34:42.377Z,48.30
2019-04-07T16:37:11.707Z,48.50
2019-04-07T16:39:41.389Z,48.80
2019-04-07T16:42:10.888Z,48.80
2019-04-07T16:44:43.257Z,48.70
2019-04-07T16:47:19.296Z,49.00
2019-04-07T16:49:46.678Z,49.70
2019-04-07T16:52:13.551Z,49.60
2019-04-07T16:54:44.585Z,50.10
2019-04-07T16:57:15.335Z,50.00
2019-04-07T16:59:44.735Z,49.30
2019-04-07T17:02:15.590Z,49.70
2019-04-07T17:04:45.128Z,49.80
2019-04-07T17:07:18.142Z,50.10
2019-04-07T17:09:49.243Z,50.50
2019-04-07T17:12:18.471Z,50.30
2019-04-07T17:14:47.506Z,50.50
2019-04-07T17:17:20.786Z,50.90
2019-04-07T17:19:47.997Z,50.60
2019-04-07T17:22:18.123Z,50.80
2019-04-07T17:24:47.831Z,50.50
2019-04-07T17:27:18.260Z,50.70
2019-04-07T17:29:52.573Z,50.80
2019-04-07T17:32:19.923Z,51.10
2019-04-07T17:34:49.823Z,51.30
2019-04-07T17:37:18.961Z,51.30
2019-04-07T17:40:00.266Z,51.60
2019-04-07T17:42:30.313Z,51.80
2019-04-07T17:45:28.511Z,52.00
2019-04-07T17:48:15.722Z,52.20
2019-04-07T17:51:01.066Z,52.80
2019-04-07T17:53:47.874Z,52.70
2019-04-07T17:56:30.915Z,52.90
2019-04-07T17:59:14.190Z,53.10
2019-04-07T18:01:56.831Z,53.40
2019-04-07T18:04:50.128Z,53.40
2019-04-07T18:07:36.143Z,53.30
2019-04-07T18:10:23.793Z,53.40
2019-04-07T18:13:11.984Z,53.60
2019-04-07T18:16:03.455Z,53.90
2019-04-07T18:19:01.601Z,54.30
2019-04-07T18:21:52.469Z,54.60
2019-04-07T18:24:30.088Z,54.70
2019-04-07T18:27:34.158Z,54.90
2019-04-07T18:30:22.016Z,55.00
2019-04-07T18:33:17.625Z,55.20
2019-04-07T18:36:05.121Z,55.60
2019-04-07T18:38:56.008Z,55.70
2019-04-07T18:42:10.280Z,56.10
2019-04-07T18:45:02.796Z,56.30
2019-04-07T18:47:43.110Z,56.60
2019-04-07T18:50:28.747Z,57.50
2019-04-07T18:53:16.695Z,57.10
2019-04-07T18:55:59.117Z,57.30
2019-04-07T18:58:53.561Z,57.30
2019-04-07T19:02:00.224Z,57.30
2019-04-07T19:04:38.785Z,57.50
2019-04-07T19:07:28.428Z,57.50
2019-04-07T19:10:13.041Z,57.60
2019-04-07T19:12:47.682Z,57.70
2019-04-07T19:15:51.272Z,57.70
2019-04-07T19:18:40.938Z,57.70
2019-04-07T19:21:48.446Z,57.70
2019-04-07T19:24:31.431Z,57.90
2019-04-07T19:27:17.430Z,58.30
2019-04-07T19:30:01.755Z,58.40
2019-04-07T19:32:52.670Z,58.60
2019-04-07T19:35:41.850Z,58.70
2019-04-07T19:38:27.539Z,58.90
2019-04-07T19:41:23.232Z,59.10
2019-04-07T19:44:01.899Z,59.30
2019-04-07T19:46:43.677Z,59.30
2019-04-07T19:49:41.576Z,59.70
2019-04-07T19:52:36.258Z,59.70
2019-04-07T19:55:24.912Z,59.90
2019-04-07T19:58:04.075Z,60.00
2019-04-07T20:00:54.308Z,60.40
2019-04-07T20:03:40.498Z,60.30
2019-04-07T20:06:31.981Z,61.00
2019-04-07T20:09:23.637Z,60.80
2019-04-07T20:12:25.019Z,60.80
2019-04-07T20:15:16.076Z,61.20
2019-04-07T20:17:56.515Z,61.10
2019-04-07T20:20:33.796Z,61.50
2019-04-07T20:23:41.442Z,61.60
2019-04-07T20:26:28.847Z,61.60
2019-04-07T20:29:20.739Z,61.70
2019-04-07T20:32:09.709Z,62.10
2019-04-07T20:34:48.700Z,62.40
2019-04-07T20:37:26.676Z,62.70
2019-04-07T20:40:14.619Z,62.70
2019-04-07T20:43:07.894Z,62.90
2019-04-07T20:46:11.062Z,62.80
2019-04-07T20:49:07.292Z,62.90
2019-04-07T20:51:50.615Z,63.30
2019-04-07T20:54:27.100Z,63.30
2019-04-07T20:57:17.653Z,63.30
2019-04-07T21:00:12.314Z,63.40
2019-04-07T21:03:14.469Z,63.60
2019-04-07T21:05:53.466Z,64.00
2019-04-07T21:08:45.525Z,64.10
2019-04-07T21:11:30.003Z,64.30
2019-04-07T21:14:28.106Z,64.30
2019-04-07T21:17:17.427Z,64.50
2019-04-07T21:20:08.374Z,64.70
2019-04-07T21:22:56.102Z,64.70
2019-04-07T21:25:35.108Z,64.70
2019-04-07T21:28:12.647Z,64.80
2019-04-07T21:31:01.287Z,64.90
2019-04-07T21:33:50.804Z,65.30
2019-04-07T21:36:42.146Z,65.30
2019-04-07T21:39:39.610Z,65.50
2019-04-07T21:42:34.497Z,65.70
2019-04-07T21:45:31.559Z,65.80
2019-04-07T21:48:05.380Z,66.00
2019-04-07T21:51:03.204Z,66.20
2019-04-07T21:53:51.743Z,66.30
2019-04-07T21:56:44.912Z,66.60
2019-04-07T21:59:46.482Z,66.80
2019-04-07T22:02:43.069Z,66.90
2019-04-07T22:05:33.237Z,67.30
2019-04-07T22:08:13.143Z,67.40
2019-04-07T22:10:38.136Z,67.50
2019-04-07T22:13:08.320Z,67.80
2019-04-07T22:15:45.951Z,68.00
2019-04-07T22:18:09.858Z,68.10
2019-04-07T22:20:39.366Z,68.40
2019-04-07T22:23:09.917Z,69.30
2019-04-07T22:25:51.060Z,68.70
2019-04-07T22:28:20.784Z,68.90
2019-04-07T22:30:50.871Z,69.10
2019-04-07T22:33:23.025Z,69.10
2019-04-07T22:35:51.293Z,69.30
2019-04-07T22:38:23.067Z,69.50
2019-04-07T22:40:52.085Z,69.80
2019-04-07T22:43:21.346Z,69.80
2019-04-07T22:45:59.273Z,70.10
2019-04-07T22:48:25.246Z,70.50
2019-04-07T22:50:52.555Z,70.50
2019-04-07T22:53:24.988Z,70.70
2019-04-07T22:55:52.812Z,70.70
2019-04-07T22:58:22.240Z,71.00
2019-04-07T23:00:52.216Z,71.20
2019-04-07T23:03:21.424Z,71.40
2019-04-07T23:05:51.331Z,71.60
2019-04-07T23:08:20.929Z,71.70
2019-04-07T23:10:50.830Z,72.10
2019-04-07T23:13:20.481Z,72.20
2019-04-07T23:15:50.343Z,72.50
2019-04-07T23:18:27.580Z,72.70
2019-04-07T23:20:59.917Z,72.80
2019-04-07T23:23:30.850Z,72.90
2019-04-07T23:26:01.916Z,73.20
2019-04-07T23:28:30.951Z,73.40
2019-04-07T23:31:03.260Z,74.40
2019-04-07T23:33:32.297Z,74.00
2019-04-07T23:36:01.782Z,74.30
2019-04-07T23:38:33.644Z,74.30
2019-04-07T23:41:03.243Z,74.60
2019-04-07T23:43:33.434Z,74.80
2019-04-07T23:46:03.008Z,75.40
2019-04-07T23:48:32.626Z,75.70
2019-04-07T23:51:02.044Z,76.10
2019-04-07T23:54:07.672Z,76.70
2019-04-07T23:56:39.351Z,77.20
2019-04-07T23:59:09.076Z,77.80
